Time;durP1;ratioP1;P1;durP2;ratioP2;P2;SDS_P1;SDS_P2;PMS_P1;PMS_P2;Temp;Humidity;BMP_temperature;BMP_pressure;BME280_temperature;BME280_humidity;BME280_pressure;Samples;Min_cycle;Max_cycle;Signal;HPM_P1;HPM_P2
2022/06/28 00:03:13;;;;;;;5.25;4.78;;;;;;;26.33;55.58;100477.72;5062221;58;22119;-77
2022/06/28 00:08:19;;;;;;;14.35;5.53;;;;;;;26.27;55.49;100482.97;5123208;57;21186;-71
2022/06/28 00:13:27;;;;;;;7.28;4.90;;;;;;;26.24;55.60;100485.29;5089661;58;21172;-74
2022/06/28 00:18:35;;;;;;;10.43;5.17;;;;;;;26.22;55.78;100491.45;5127669;58;21673;-73
2022/06/28 00:23:42;;;;;;;10.63;5.47;;;;;;;26.17;55.73;100481.79;5038373;58;21157;-70
2022/06/28 00:28:49;;;;;;;9.98;5.65;;;;;;;26.15;55.84;100483.89;5074426;58;21099;-71
2022/06/28 00:33:56;;;;;;;15.23;5.85;;;;;;;26.12;55.80;100472.16;5074807;58;21162;-77
2022/06/28 00:39:01;;;;;;;5.40;4.90;;;;;;;26.04;56.13;100462.41;5071880;58;21170;-73
2022/06/28 00:44:13;;;;;;;7.28;5.33;;;;;;;25.97;56.09;100459.46;4976941;59;21236;-73
2022/06/28 00:49:21;;;;;;;11.95;5.40;;;;;;;25.88;56.45;100455.66;5090855;57;21761;-72
2022/06/28 00:54:27;;;;;;;16.48;4.80;;;;;;;25.79;56.83;100464.28;5058945;58;21115;-69
2022/06/28 00:59:32;;;;;;;8.50;5.37;;;;;;;25.74;56.79;100468.17;5005393;59;21562;-71
2022/06/28 01:04:39;;;;;;;11.03;5.35;;;;;;;25.69;56.93;100470.69;5058478;58;21194;-71
2022/06/28 01:09:45;;;;;;;10.15;5.90;;;;;;;25.59;57.27;100474.69;5174456;57;21212;-71
2022/06/28 01:14:51;;;;;;;13.40;5.70;;;;;;;25.53;57.70;100472.84;5176332;57;21216;-69
2022/06/28 01:20:01;;;;;;;5.85;4.80;;;;;;;25.49;57.40;100457.27;5151796;57;21245;-76
2022/06/28 01:25:27;;;;;;;7.00;5.45;;;;;;;25.49;57.33;100474.34;5151363;57;22306;-71
2022/06/28 01:30:34;;;;;;;6.55;5.08;;;;;;;25.42;57.62;100497.91;5119663;57;21134;-71
2022/06/28 01:35:41;;;;;;;6.50;5.50;;;;;;;25.41;57.84;100497.60;5110883;57;21196;-70
2022/06/28 01:40:49;;;;;;;5.70;5.20;;;;;;;25.39;57.81;100488.03;5160285;57;21194;-73
2022/06/28 01:45:57;;;;;;;6.92;5.62;;;;;;;25.37;58.02;100482.83;5113418;57;21632;-71
2022/06/28 01:51:04;;;;;;;10.20;6.40;;;;;;;25.37;58.09;100484.18;5086755;58;21178;-73
2022/06/28 01:56:11;;;;;;;8.08;5.60;;;;;;;25.33;57.89;100490.27;4989566;58;21696;-72
2022/06/28 02:01:36;;;;;;;12.58;5.92;;;;;;;25.26;58.37;100502.47;5057068;58;21194;-72
2022/06/28 02:06:44;;;;;;;5.47;4.78;;;;;;;25.18;58.19;100505.43;5093086;57;21146;-73
2022/06/28 02:11:52;;;;;;;6.45;5.30;;;;;;;25.21;58.19;100515.80;5126781;58;21166;-72
2022/06/28 02:17:00;;;;;;;8.05;4.85;;;;;;;25.16;58.35;100511.58;5125432;58;21210;-72
2022/06/28 02:22:07;;;;;;;9.28;5.70;;;;;;;25.18;58.47;100516.26;5121624;57;21179;-73
2022/06/28 02:27:14;;;;;;;7.08;6.30;;;;;;;25.23;58.59;100508.30;5126933;58;21247;-74
2022/06/28 02:32:21;;;;;;;7.90;5.55;;;;;;;25.22;58.46;100517.47;5122808;58;21667;-68
2022/06/28 02:43:00;;;;;;;7.42;6.40;;;;;;;25.19;58.54;100517.92;5123064;58;21190;-73
2022/06/28 02:48:06;;;;;;;;;;;;;;;25.14;58.88;100528.55;5039154;58;21513;-73
2022/06/28 02:53:12;;;;;;;7.87;5.78;;;;;;;25.07;58.97;100544.80;5044753;58;20207;-73
2022/06/28 02:58:17;;;;;;;9.25;5.20;;;;;;;25.08;59.28;100546.46;5090631;58;21559;-73
2022/06/28 03:03:24;;;;;;;17.48;5.35;;;;;;;25.12;59.36;100565.82;5090754;58;21217;-73
2022/06/28 03:08:30;;;;;;;16.48;5.45;;;;;;;25.07;59.45;100570.51;5090649;58;21199;-70
2022/06/28 03:13:36;;;;;;;8.05;6.30;;;;;;;24.95;60.02;100583.03;5087398;58;21130;-70
2022/06/28 03:18:42;;;;;;;12.07;6.22;;;;;;;24.88;60.58;100588.44;5067084;58;21493;-74
2022/06/28 03:23:48;;;;;;;6.30;5.80;;;;;;;24.77;61.81;100609.87;5167166;56;21158;-76
2022/06/28 03:28:54;;;;;;;11.30;6.17;;;;;;;24.62;63.16;100614.66;5210773;56;21712;-71
2022/06/28 03:34:01;;;;;;;12.20;9.23;;;;;;;24.35;69.51;100620.06;5206571;56;21584;-70
2022/06/28 03:39:08;;;;;;;11.30;9.15;;;;;;;23.97;74.42;100617.06;5161538;57;21212;-74
2022/06/28 03:44:15;;;;;;;15.00;10.78;;;;;;;23.77;76.97;100629.66;5151468;57;21192;-76
2022/06/28 03:49:22;;;;;;;18.95;12.85;;;;;;;23.59;79.47;100643.71;5162490;57;21181;-73
2022/06/28 03:54:32;;;;;;;18.48;12.85;;;;;;;23.42;83.83;100636.94;5171406;56;21081;-68
2022/06/28 03:59:43;;;;;;;12.98;10.53;;;;;;;23.34;83.51;100645.22;5189016;57;21116;-72
2022/06/28 04:04:50;;;;;;;11.60;10.40;;;;;;;23.22;88.92;100654.36;5136863;57;21191;-70
2022/06/28 04:09:56;;;;;;;13.28;10.08;;;;;;;23.18;88.87;100657.67;4992001;59;21670;-74
2022/06/28 04:15:02;;;;;;;11.73;8.73;;;;;;;23.14;89.62;100670.20;5069821;58;21229;-77
2022/06/28 04:20:09;;;;;;;12.73;8.78;;;;;;;23.16;89.15;100675.41;5143986;56;21182;-73
2022/06/28 04:25:16;;;;;;;12.28;8.20;;;;;;;23.19;89.70;100683.63;5237230;56;21167;-76
2022/06/28 04:30:25;;;;;;;12.13;9.55;;;;;;;23.19;88.56;100685.81;5239258;56;21107;-78
2022/06/28 04:35:32;;;;;;;15.43;11.30;;;;;;;23.21;88.82;100692.37;5059792;56;21134;-74
2022/06/28 04:40:38;;;;;;;15.95;10.72;;;;;;;23.17;88.75;100701.37;5110042;57;21950;-79
2022/06/28 04:46:01;;;;;;;16.65;10.85;;;;;;;23.15;89.67;100698.02;5024106;56;21628;-69
2022/06/28 04:51:11;;;;;;;21.10;12.55;;;;;;;23.17;89.50;100689.73;5206819;56;21167;-70
2022/06/28 04:56:20;;;;;;;18.67;13.08;;;;;;;23.19;88.60;100691.73;5190997;56;21174;-72
2022/06/28 05:01:27;;;;;;;19.45;12.78;;;;;;;23.23;88.15;100700.56;5254969;56;21502;-78
2022/06/28 05:06:33;;;;;;;15.98;11.93;;;;;;;23.11;88.36;100707.02;5231744;56;21188;-70
2022/06/28 05:11:39;;;;;;;20.23;12.55;;;;;;;22.86;89.62;100701.74;5167778;57;21192;-70
2022/06/28 05:16:47;;;;;;;18.87;11.35;;;;;;;22.68;90.43;100696.77;5162590;57;21571;-70
2022/06/28 05:21:54;;;;;;;19.40;13.38;;;;;;;22.67;89.87;100701.84;5164336;57;21556;-73
2022/06/28 05:27:01;;;;;;;16.02;11.78;;;;;;;22.71;89.82;100687.47;5173535;57;21517;-70
2022/06/28 05:32:12;;;;;;;20.40;11.97;;;;;;;22.78;88.67;100697.30;5172991;57;21742;-72
2022/06/28 05:37:18;;;;;;;13.50;10.30;;;;;;;22.83;87.74;100680.55;5173521;57;21215;-75
2022/06/28 05:42:24;;;;;;;15.75;10.55;;;;;;;22.79;88.98;100707.06;5174031;57;21157;-70
2022/06/28 05:47:31;;;;;;;17.00;9.55;;;;;;;22.72;89.07;100729.59;5174055;57;21165;-69
2022/06/28 05:52:37;;;;;;;17.20;11.85;;;;;;;22.70;89.39;100781.52;5173902;56;21114;-72
2022/06/28 05:57:43;;;;;;;22.30;14.13;;;;;;;22.65;88.98;100849.48;5161906;57;21762;-69
2022/06/28 06:02:49;;;;;;;22.15;12.82;;;;;;;22.60;89.44;100886.98;5161725;57;21204;-76
2022/06/28 06:07:54;;;;;;;17.12;12.68;;;;;;;22.56;87.93;100816.11;5161686;57;21110;-70
2022/06/28 06:13:02;;;;;;;17.55;11.68;;;;;;;22.54;88.27;100826.23;5129556;58;21099;-72
2022/06/28 06:18:08;;;;;;;20.60;12.82;;;;;;;22.53;87.67;100823.22;5122564;58;21167;-71
2022/06/28 06:23:15;;;;;;;17.12;11.38;;;;;;;22.56;86.47;100802.11;5105617;58;21115;-70
2022/06/28 06:28:23;;;;;;;16.25;11.63;;;;;;;22.63;86.13;100747.73;5114401;57;21218;-75
2022/06/28 06:33:31;;;;;;;9.03;7.37;;;;;;;22.54;87.22;100684.20;5153671;57;21219;-76
2022/06/28 06:38:38;;;;;;;13.00;8.88;;;;;;;22.38;90.31;100626.51;5129091;58;21170;-75
2022/06/28 06:43:44;;;;;;;9.33;7.05;;;;;;;22.18;91.70;100614.69;5136375;57;21171;-69
2022/06/28 06:48:53;;;;;;;16.80;8.53;;;;;;;22.12;93.50;100599.31;5203618;57;21190;-71
2022/06/28 06:53:59;;;;;;;15.15;8.95;;;;;;;22.16;93.12;100628.86;5162963;57;21556;-70
2022/06/28 06:59:07;;;;;;;22.40;12.63;;;;;;;22.28;93.37;100658.34;5065249;58;21221;-72
2022/06/28 07:04:14;;;;;;;10.30;8.05;;;;;;;22.49;93.85;100693.36;5065106;58;21560;-73
2022/06/28 07:09:23;;;;;;;11.10;6.00;;;;;;;22.71;93.18;100733.31;5065038;58;21166;-74
2022/06/28 07:14:28;;;;;;;10.50;5.90;;;;;;;22.88;93.00;100760.89;5064938;58;21561;-74
2022/06/28 07:19:36;;;;;;;6.70;5.97;;;;;;;22.92;92.55;100792.66;5064967;58;21196;-73
2022/06/28 07:24:42;;;;;;;11.95;6.65;;;;;;;22.89;91.79;100839.43;5065017;58;21193;-68
2022/06/28 07:29:49;;;;;;;8.55;5.78;;;;;;;22.74;93.39;100863.20;5064847;58;21178;-76
2022/06/28 07:34:54;;;;;;;10.43;7.33;;;;;;;22.58;94.45;100880.11;5064962;58;21635;-77
2022/06/28 07:40:00;;;;;;;11.03;7.35;;;;;;;22.48;95.85;100890.33;5064879;58;21197;-68
2022/06/28 07:45:15;;;;;;;6.87;5.87;;;;;;;22.39;96.77;100893.13;5064926;58;21588;-71
2022/06/28 07:55:47;;;;;;;11.60;6.45;;;;;;;22.27;99.60;100898.67;5068371;58;21178;-65
2022/06/28 08:00:54;;;;;;;6.28;5.67;;;;;;;22.26;100.00;100912.33;5017254;58;22191;-65
2022/06/28 08:06:01;;;;;;;22.02;5.90;;;;;;;22.17;100.00;100926.38;5181224;56;21190;-64
2022/06/28 08:11:09;;;;;;;8.18;6.33;;;;;;;22.10;100.00;100929.50;5210619;56;21092;-64
2022/06/28 08:16:14;;;;;;;9.40;6.50;;;;;;;21.93;100.00;100942.25;5200160;56;21197;-66
2022/06/28 08:21:20;;;;;;;9.73;7.15;;;;;;;21.84;100.00;100946.05;5186483;56;21160;-65
2022/06/28 08:26:26;;;;;;;9.13;7.25;;;;;;;21.83;100.00;100962.39;5108820;57;21096;-68
2022/06/28 08:31:34;;;;;;;8.75;7.50;;;;;;;21.90;100.00;100971.40;5113209;57;21150;-66
2022/06/28 08:36:40;;;;;;;8.05;7.25;;;;;;;21.95;100.00;100960.42;5247663;56;21104;-64
2022/06/28 08:41:48;;;;;;;7.85;7.05;;;;;;;21.92;100.00;100973.41;5186491;56;21155;-64
2022/06/28 08:46:54;;;;;;;12.78;7.33;;;;;;;21.77;100.00;100982.79;5074581;58;22138;-68
2022/06/28 08:52:00;;;;;;;8.23;6.60;;;;;;;21.62;100.00;100981.39;5066789;57;21549;-68
2022/06/28 08:57:07;;;;;;;7.75;6.97;;;;;;;21.65;100.00;100996.34;5219694;56;21162;-64
2022/06/28 09:02:16;;;;;;;7.47;6.58;;;;;;;21.70;100.00;101000.66;5168420;57;21171;-67
2022/06/28 09:07:24;;;;;;;8.45;6.33;;;;;;;21.86;100.00;101005.09;5191377;57;21191;-67
2022/06/28 09:12:33;;;;;;;8.65;6.37;;;;;;;21.99;100.00;101005.34;5134440;57;21128;-67
2022/06/28 09:17:39;;;;;;;7.55;6.80;;;;;;;22.08;100.00;101003.77;5034610;58;21152;-65
2022/06/28 09:22:46;;;;;;;7.05;6.42;;;;;;;22.17;100.00;100999.13;4975834;59;21165;-67
2022/06/28 09:27:59;;;;;;;6.67;6.00;;;;;;;22.19;100.00;100998.95;4976583;59;21186;-65
2022/06/28 09:33:05;;;;;;;8.98;6.62;;;;;;;22.17;100.00;100991.05;4976564;59;21123;-68
2022/06/28 09:38:12;;;;;;;7.28;6.65;;;;;;;22.38;100.00;100988.48;4940311;58;43607;-66
2022/06/28 09:43:18;;;;;;;8.35;6.72;;;;;;;22.65;100.00;100995.09;5084016;58;21111;-67
2022/06/28 09:48:23;;;;;;;8.05;7.25;;;;;;;22.87;100.00;101010.05;5120441;57;21181;-64
2022/06/28 09:53:34;;;;;;;7.65;6.83;;;;;;;23.00;99.33;101002.97;4983925;59;21513;-65
2022/06/28 09:58:39;;;;;;;7.35;6.72;;;;;;;23.02;97.71;101014.41;4951910;59;21126;-64
2022/06/28 10:03:46;;;;;;;7.00;6.22;;;;;;;23.04;97.72;101017.77;4888935;60;21141;-66
2022/06/28 10:08:52;;;;;;;6.53;6.03;;;;;;;23.07;96.49;101017.36;4963842;59;21110;-67
2022/06/28 10:19:26;;;;;;;6.50;5.83;;;;;;;22.99;96.46;101036.87;5015932;59;21714;-66
2022/06/28 10:24:53;;;;;;;5.33;4.92;;;;;;;22.89;96.05;101038.52;5016033;59;21122;-66
2022/06/28 10:30:12;;;;;;;6.65;5.95;;;;;;;22.78;96.94;101042.50;4936849;60;21188;-64
2022/06/28 10:35:36;;;;;;;7.50;6.80;;;;;;;22.75;97.27;101045.56;5170183;57;21162;-65
2022/06/28 10:40:49;;;;;;;11.60;8.78;;;;;;;22.63;96.66;101047.52;5133374;57;21181;-65
2022/06/28 10:46:07;;;;;;;8.85;7.92;;;;;;;22.49;96.22;101047.84;5098543;58;21192;-66
2022/06/28 10:51:13;;;;;;;11.97;9.85;;;;;;;22.38;97.10;101061.26;5099655;58;21517;-64
2022/06/28 10:56:19;;;;;;;12.68;10.15;;;;;;;22.40;97.00;101062.42;5098892;57;21493;-64
2022/06/28 11:01:51;;;;;;;14.20;10.95;;;;;;;22.44;96.90;101062.39;5058566;58;21161;-63
2022/06/28 11:07:01;;;;;;;11.45;9.60;;;;;;;22.51;96.79;101068.71;5090881;58;21190;-63
2022/06/28 11:12:14;;;;;;;12.98;10.82;;;;;;;22.57;96.77;101065.80;5037110;58;21114;-66
2022/06/28 11:17:28;;;;;;;15.32;11.45;;;;;;;22.72;97.21;101067.50;5013789;59;21226;-65
2022/06/28 11:22:41;;;;;;;12.28;9.63;;;;;;;22.89;97.05;101080.84;5013775;59;21627;-66
2022/06/28 11:27:57;;;;;;;12.10;9.48;;;;;;;22.92;96.21;101086.68;5013657;59;21741;-67
2022/06/28 11:33:02;;;;;;;12.30;8.68;;;;;;;22.86;95.48;101087.95;5013719;59;21542;-63
2022/06/28 11:38:11;;;;;;;6.85;6.17;;;;;;;22.68;94.73;101106.63;5018937;58;21188;-65
2022/06/28 11:43:25;;;;;;;6.83;5.35;;;;;;;22.49;95.17;101110.34;5096303;58;21221;-63
2022/06/28 11:48:34;;;;;;;7.47;5.70;;;;;;;22.22;94.73;101118.50;5087907;58;21149;-67
2022/06/28 11:53:46;;;;;;;5.12;4.60;;;;;;;22.08;94.97;101114.73;5087561;58;21173;-67
2022/06/28 11:58:52;;;;;;;6.80;5.50;;;;;;;21.97;95.30;101107.87;5087744;57;21504;-66
2022/06/28 12:04:02;;;;;;;8.48;6.25;;;;;;;21.97;95.86;101122.69;5090643;58;21172;-66
2022/06/28 12:09:10;;;;;;;7.08;5.37;;;;;;;22.01;95.80;101119.14;5094343;58;21102;-64
2022/06/28 12:14:34;;;;;;;8.95;6.42;;;;;;;22.08;96.39;101112.03;5096196;58;21144;-63
2022/06/28 12:19:42;;;;;;;7.17;6.47;;;;;;;22.12;96.08;101112.52;5094968;58;21222;-65
2022/06/28 12:24:56;;;;;;;13.00;7.95;;;;;;;22.24;96.08;101115.11;5096167;58;21157;-65
2022/06/28 12:30:04;;;;;;;13.78;9.18;;;;;;;22.43;95.67;101119.52;5096158;58;21205;-63
2022/06/28 12:35:12;;;;;;;12.47;8.65;;;;;;;22.61;94.66;101120.50;5096232;58;21215;-66
2022/06/28 12:40:18;;;;;;;9.70;7.97;;;;;;;22.66;93.96;101124.85;5096187;58;21157;-67
2022/06/28 12:45:23;;;;;;;10.10;7.75;;;;;;;22.77;93.20;101120.89;5093165;58;21826;-66
2022/06/28 12:50:29;;;;;;;10.28;6.70;;;;;;;22.85;92.40;101126.73;5087853;58;21193;-66
2022/06/28 12:55:35;;;;;;;10.35;6.30;;;;;;;22.97;91.94;101136.88;5088143;58;21214;-64
2022/06/28 13:00:41;;;;;;;9.88;5.55;;;;;;;23.12;90.90;101139.08;5136468;57;21206;-64
2022/06/28 13:05:47;;;;;;;5.35;4.80;;;;;;;23.14;90.08;101142.94;5127804;57;21149;-67
2022/06/28 13:10:53;;;;;;;10.35;6.45;;;;;;;23.33;91.25;101141.04;5126004;57;21177;-65
2022/06/28 13:16:00;;;;;;;10.50;6.47;;;;;;;23.49;90.49;101144.89;5154070;57;21209;-64
2022/06/28 13:21:06;;;;;;;7.25;5.47;;;;;;;23.56;89.68;101149.04;5154002;57;22107;-64
2022/06/28 13:26:12;;;;;;;5.85;5.35;;;;;;;23.60;90.10;101146.30;5154078;57;21162;-66
2022/06/28 13:31:18;;;;;;;6.65;5.62;;;;;;;23.71;90.08;101151.20;5154110;57;21636;-66
2022/06/28 13:36:23;;;;;;;8.58;6.85;;;;;;;23.64;88.27;101143.55;5153822;57;21158;-66
2022/06/28 13:41:29;;;;;;;10.28;6.17;;;;;;;23.63;89.42;101138.34;5115164;57;21142;-65
2022/06/28 13:46:35;;;;;;;9.08;5.17;;;;;;;23.75;89.42;101139.00;5132530;57;21165;-65
2022/06/28 13:51:41;;;;;;;8.15;6.10;;;;;;;23.80;88.95;101140.62;5150312;57;21257;-65
2022/06/28 13:56:46;;;;;;;8.43;6.10;;;;;;;23.74;88.91;101133.27;5146925;57;21226;-64
2022/06/28 14:01:52;;;;;;;5.12;4.72;;;;;;;23.75;89.39;101132.76;5089951;57;21206;-66
2022/06/28 14:06:57;;;;;;;5.37;4.85;;;;;;;23.79;89.00;101139.47;5033339;58;21140;-63
2022/06/28 14:12:04;;;;;;;9.00;5.50;;;;;;;23.68;88.10;101138.07;5085662;58;21643;-64
2022/06/28 14:17:10;;;;;;;6.55;5.35;;;;;;;23.48;88.37;101137.81;5003510;59;21230;-66
2022/06/28 14:22:16;;;;;;;8.00;6.70;;;;;;;23.35;88.39;101140.34;5085600;58;21564;-67
2022/06/28 14:27:22;;;;;;;6.47;5.70;;;;;;;23.24;88.52;101123.76;5003562;59;21150;-65
2022/06/28 14:32:28;;;;;;;5.30;4.80;;;;;;;23.08;89.12;101139.11;5085629;58;21177;-68
2022/06/28 14:37:34;;;;;;;5.62;4.03;;;;;;;22.90;89.92;101144.56;4996927;58;21218;-65
2022/06/28 14:42:39;;;;;;;4.60;4.12;;;;;;;22.76;89.22;101143.48;5085651;58;22158;-67
2022/06/28 14:47:49;;;;;;;3.85;3.58;;;;;;;22.51;88.24;101148.24;5096112;58;21160;-65
2022/06/28 14:52:52;;;;;;;2.65;2.47;;;;;;;22.42;88.44;101154.73;5098443;58;21184;-65
2022/06/28 14:57:59;;;;;;;2.35;1.80;;;;;;;22.33;88.74;101154.45;5077604;58;21155;-64
2022/06/28 15:03:05;;;;;;;2.00;1.90;;;;;;;22.16;90.02;101147.49;5012261;59;21170;-65
2022/06/28 15:08:11;;;;;;;1.85;1.85;;;;;;;21.90;90.20;101155.37;4982890;59;21818;-67
2022/06/28 15:13:18;;;;;;;1.87;1.75;;;;;;;21.79;90.82;101157.64;5096464;58;21166;-64
2022/06/28 15:18:24;;;;;;;1.87;1.77;;;;;;;21.60;91.83;101162.43;5096494;58;21226;-63
2022/06/28 15:34:17;;;;;;;3.05;1.57;;;;;;;21.28;93.34;101144.55;5096255;58;21178;-63
2022/06/28 15:39:23;;;;;;;2.62;2.30;;;;;;;21.21;93.78;101132.83;5096143;58;21618;-66
2022/06/28 15:44:29;;;;;;;6.97;3.70;;;;;;;21.33;94.78;101126.05;5094911;58;21161;-73
2022/06/28 15:49:36;;;;;;;2.80;1.50;;;;;;;21.47;94.85;101125.81;5087649;58;21131;-73
2022/06/28 15:54:41;;;;;;;1.70;1.60;;;;;;;21.60;93.90;101135.51;5064401;58;21158;-73
2022/06/28 15:59:47;;;;;;;3.37;1.95;;;;;;;21.64;93.32;101137.35;4934748;59;21186;-74
2022/06/28 16:04:53;;;;;;;4.78;3.12;;;;;;;21.69;92.93;101129.59;4936853;60;21184;-74
2022/06/28 16:10:02;;;;;;;6.08;3.20;;;;;;;21.75;93.22;101121.63;4994401;59;21185;-74
2022/06/28 16:15:08;;;;;;;4.58;3.58;;;;;;;21.70;92.36;101119.97;4972668;59;21174;-74
2022/06/28 16:20:14;;;;;;;3.30;3.12;;;;;;;21.74;92.28;101119.95;4953741;59;21147;-75
2022/06/28 16:25:21;;;;;;;6.08;2.77;;;;;;;21.89;92.38;101128.11;4933701;59;21886;-74
2022/06/28 16:30:28;;;;;;;5.47;3.00;;;;;;;22.05;91.75;101128.55;4932233;60;21194;-74
2022/06/28 16:35:34;;;;;;;6.28;5.65;;;;;;;22.13;91.09;101111.50;4932174;60;21202;-74
2022/06/28 16:40:40;;;;;;;4.12;3.35;;;;;;;22.02;90.25;101108.19;5052893;57;21193;-73
2022/06/28 16:45:47;;;;;;;11.05;7.75;;;;;;;22.05;91.06;101108.34;5073002;57;1134806;-75
2022/06/28 16:50:53;;;;;;;7.85;7.15;;;;;;;22.09;90.79;101105.13;5154189;57;21186;-73
2022/06/28 16:55:59;;;;;;;15.15;13.32;;;;;;;22.18;90.24;101115.31;5116013;57;21123;-74
2022/06/28 17:01:05;;;;;;;7.67;6.83;;;;;;;22.17;90.59;101110.94;5070209;57;1136883;-74
2022/06/28 17:11:35;;;;;;;10.28;7.53;;;;;;;22.15;90.16;101098.70;5047059;57;1136847;-74
2022/06/28 17:16:41;;;;;;;29.57;27.27;;;;;;;22.28;89.96;101106.50;5036591;58;1139148;-74
2022/06/28 17:21:49;;;;;;;3.90;3.45;;;;;;;22.30;89.52;101107.16;5082674;57;1139195;-73
2022/06/28 17:26:56;;;;;;;8.52;7.36;;;;;;;22.36;89.67;101105.58;5060421;57;1134711;-74
2022/06/28 17:32:02;;;;;;;2.52;2.35;;;;;;;22.39;88.90;101105.22;5008098;57;1138945;-73
2022/06/28 17:37:10;;;;;;;2.37;2.22;;;;;;;22.49;89.12;101109.00;5009234;58;1139114;-74
2022/06/28 17:42:17;;;;;;;2.53;2.33;;;;;;;22.60;88.42;101108.08;5079998;57;1138987;-76
2022/06/28 17:47:23;;;;;;;1.50;1.40;;;;;;;22.49;86.04;101121.97;5107364;57;1139019;-74
2022/06/28 17:52:28;;;;;;;4.72;3.75;;;;;;;22.40;86.55;101135.20;5144664;57;1139263;-74
2022/06/28 17:57:34;;;;;;;2.15;1.98;;;;;;;22.34;85.83;101139.95;5081480;57;1139022;-75
2022/06/28 18:02:40;;;;;;;10.50;9.50;;;;;;;22.19;86.18;101145.80;4928575;59;1139092;-74
2022/06/28 18:07:47;;;;;;;9.80;9.00;;;;;;;22.19;86.18;101145.80;5076749;57;1141346;-74
2022/06/28 18:12:53;;;;;;;7.66;7.02;;;;;;;22.14;85.72;101148.20;5072996;57;1139047;-75
2022/06/28 18:18:03;;;;;;;7.58;6.87;;;;;;;22.19;86.02;101153.37;5115777;57;1138981;-75
2022/06/28 18:23:09;;;;;;;1.90;1.62;;;;;;;22.16;85.84;101160.97;5133816;57;1138828;-76
2022/06/28 18:28:14;;;;;;;3.87;2.72;;;;;;;22.24;86.15;101153.68;5108745;57;1138918;-74
2022/06/28 18:33:20;;;;;;;2.95;2.75;;;;;;;22.25;85.72;101143.23;5079930;57;1139061;-75
2022/06/28 18:38:26;;;;;;;3.52;3.32;;;;;;;22.30;85.60;101139.50;5009101;58;1139007;-74
2022/06/28 18:43:33;;;;;;;1.57;1.47;;;;;;;22.24;83.72;101136.67;5078870;57;1138954;-75
2022/06/28 18:48:39;;;;;;;2.35;1.47;;;;;;;22.15;84.18;101129.68;5078712;58;1139305;-74
2022/06/28 18:53:45;;;;;;;2.55;1.90;;;;;;;22.14;84.36;101130.19;5078768;57;1138871;-75
2022/06/28 18:58:51;;;;;;;1.85;1.50;;;;;;;22.12;84.53;101134.08;5078753;57;1139058;-76
2022/06/28 19:03:56;;;;;;;2.50;1.30;;;;;;;22.04;84.46;101144.38;5074516;57;1139238;-75
2022/06/28 19:09:01;;;;;;;5.47;1.42;;;;;;;;;;5085401;57;1138924;-74
2022/06/28 19:14:08;;;;;;;7.35;1.65;;;;;;;21.97;84.57;101138.85;4940198;59;817892;-74
2022/06/28 19:19:14;;;;;;;1.85;1.40;;;;;;;21.90;84.64;101154.03;5064418;57;1136822;-74
2022/06/28 19:24:20;;;;;;;6.47;2.50;;;;;;;21.82;84.74;101155.95;5093536;57;1139010;-74
2022/06/28 19:29:27;;;;;;;2.42;1.72;;;;;;;21.73;84.75;101157.82;5117389;57;1138981;-74
2022/06/28 19:34:33;;;;;;;10.85;2.02;;;;;;;21.68;85.04;101166.95;5108457;57;1138827;-74
2022/06/28 19:39:39;;;;;;;9.30;2.17;;;;;;;21.64;85.04;101181.27;5129380;57;1141002;-74
2022/06/28 19:44:45;;;;;;;3.42;1.57;;;;;;;21.58;85.18;101189.19;5012465;58;1138875;-74
2022/06/28 19:49:51;;;;;;;5.17;1.60;;;;;;;21.49;85.37;101199.16;5022185;58;1139256;-74
2022/06/28 19:54:57;;;;;;;1.90;1.70;;;;;;;21.38;85.53;101209.80;5056013;58;1139116;-75
2022/06/28 20:00:05;;;;;;;11.45;2.05;;;;;;;21.33;86.16;101208.12;5044129;57;1138890;-74
2022/06/28 20:05:12;;;;;;;3.00;1.62;;;;;;;21.26;85.89;101204.92;5049645;57;1141029;-74
2022/06/28 20:10:18;;;;;;;2.05;1.40;;;;;;;21.19;86.03;101201.23;5102841;57;1138942;-74
2022/06/28 20:15:24;;;;;;;2.00;1.27;;;;;;;21.12;86.39;101214.51;5087413;57;1139004;-74
2022/06/28 20:20:31;;;;;;;2.25;2.05;;;;;;;21.07;86.65;101222.27;5058970;57;1138938;-74
2022/06/28 20:25:37;;;;;;;3.80;2.20;;;;;;;21.02;86.75;101201.75;5073826;58;1138894;-74
2022/06/28 20:30:44;;;;;;;5.78;2.67;;;;;;;20.99;87.05;101199.41;5073932;58;1138996;-74
2022/06/28 20:35:50;;;;;;;5.55;3.52;;;;;;;20.90;86.64;101201.77;5073794;58;1139237;-74
2022/06/28 20:46:18;;;;;;;4.95;3.27;;;;;;;20.96;87.04;101207.30;4906518;58;1137001;-73
2022/06/28 20:51:24;;;;;;;4.03;2.67;;;;;;;21.00;87.57;101197.89;5074073;57;1136906;-74
2022/06/28 20:56:30;;;;;;;8.48;4.62;;;;;;;20.99;87.22;101195.36;5063849;58;1136895;-74
2022/06/28 21:01:36;;;;;;;5.37;3.22;;;;;;;20.90;86.79;101186.48;5109245;57;1136995;-74
2022/06/28 21:06:43;;;;;;;4.30;2.58;;;;;;;20.89;87.20;101192.87;5085714;57;1136954;-74
2022/06/28 21:11:49;;;;;;;2.50;1.90;;;;;;;20.86;86.72;101189.67;5067538;57;1136947;-74
2022/06/28 21:16:56;;;;;;;2.10;1.85;;;;;;;20.79;86.58;101192.69;5072579;57;1136881;-74
2022/06/28 21:22:01;;;;;;;19.52;7.25;;;;;;;20.74;86.93;101185.66;5054568;58;1136971;-74
2022/06/28 21:27:07;;;;;;;7.47;4.58;;;;;;;20.74;86.93;101185.66;5053023;57;1139111;-74
2022/06/28 21:32:13;;;;;;;5.03;3.87;;;;;;;20.65;86.45;101184.80;5026203;58;1136945;-74
2022/06/28 21:37:19;;;;;;;8.03;3.27;;;;;;;20.51;86.56;101197.06;4912008;60;1137005;-74
2022/06/28 21:42:24;;;;;;;3.85;3.45;;;;;;;20.52;87.04;101201.42;5069740;58;1136958;-74
2022/06/28 21:47:30;;;;;;;5.92;3.27;;;;;;;20.45;86.44;101206.30;5070302;58;1136917;-74
2022/06/28 21:52:35;;;;;;;8.20;3.77;;;;;;;20.26;86.47;101198.85;5068403;58;1137186;-74
2022/06/28 21:57:43;;;;;;;7.05;4.87;;;;;;;20.18;86.68;101200.67;5068303;58;1134898;-74
2022/06/28 22:02:48;;;;;;;9.78;3.90;;;;;;;20.00;86.75;101193.60;5068336;58;1135089;-74
2022/06/28 22:07:56;;;;;;;5.20;4.52;;;;;;;19.76;86.87;101196.19;5090608;57;1139126;-75
2022/06/28 22:13:04;;;;;;;4.53;4.10;;;;;;;19.43;87.58;101182.25;4997170;58;1138985;-74
2022/06/28 22:18:10;;;;;;;4.70;4.30;;;;;;;19.49;88.70;101182.50;5076935;58;1139171;-74
2022/06/28 22:23:16;;;;;;;5.72;4.58;;;;;;;19.63;89.27;101181.88;5076808;58;1138936;-74
2022/06/28 22:28:21;;;;;;;8.55;3.22;;;;;;;19.73;89.42;101178.22;5056469;58;1139003;-74
2022/06/28 22:33:27;;;;;;;12.58;4.20;;;;;;;19.82;89.49;101178.10;5076933;57;1138996;-73
2022/06/28 22:38:33;;;;;;;6.50;5.00;;;;;;;19.89;89.36;101182.30;5076384;58;1141107;-75
2022/06/28 22:43:39;;;;;;;12.15;4.55;;;;;;;19.90;88.84;101179.95;5074668;58;1139037;-74
2022/06/28 22:48:45;;;;;;;8.88;5.10;;;;;;;19.93;88.85;101185.84;5045455;58;1141053;-74
2022/06/28 22:53:50;;;;;;;4.47;3.80;;;;;;;19.82;88.18;101187.50;5045444;58;1139019;-73
2022/06/28 22:58:56;;;;;;;7.62;4.30;;;;;;;19.71;87.52;101189.11;5045299;58;1139262;-74
2022/06/28 23:04:01;;;;;;;4.72;3.22;;;;;;;19.44;86.97;101188.80;5045097;58;1139109;-74
2022/06/28 23:09:07;;;;;;;6.33;4.47;;;;;;;19.12;87.00;101177.88;5069413;57;1139272;-74
2022/06/28 23:14:13;;;;;;;9.45;4.78;;;;;;;18.82;87.49;101183.21;5065762;58;1139081;-74
2022/06/28 23:19:19;;;;;;;5.65;4.95;;;;;;;18.46;88.28;101185.92;5065837;58;1139032;-74
2022/06/28 23:24:25;;;;;;;5.03;4.50;;;;;;;18.18;88.96;101178.96;5065453;57;1139060;-74
2022/06/28 23:29:31;;;;;;;4.95;4.40;;;;;;;18.20;89.83;101169.75;5065480;58;1139017;-74
2022/06/28 23:34:37;;;;;;;7.12;4.30;;;;;;;18.25;90.03;101166.63;5065609;57;1139016;-73
2022/06/28 23:39:42;;;;;;;4.60;4.20;;;;;;;18.47;90.85;101159.98;4959107;59;1139156;-74
2022/06/28 23:44:47;;;;;;;4.45;3.98;;;;;;;18.59;90.30;101162.28;4958615;59;1139062;-74
2022/06/28 23:49:53;;;;;;;4.33;3.87;;;;;;;18.69;90.23;101143.92;4958691;59;1139021;-74
2022/06/28 23:55:14;;;;;;;8.60;4.22;;;;;;;18.75;89.95;101128.58;4953571;59;1139109;-74
